KBLF/BLF METAR and TAF weather

Enter ICAO airport designator
Station Type Date Time Source
KBLF METAR 2019/12/11 15:17 UTC NOAA

KBLF 111517Z AUTO 26010G17KT 10SM BKN017 M06/M07 A3040 RMK AO2 T10611067


Station Type Date Time Source
KBLF Decoded METAR 2019/12/11 15:17 UTC NOAA

BLUEFIELD MERCER COUNTY AIRPORT , WV, United States (KBLF) 37-18N 081-12W 873M
Dec 11, 2019 - 10:17 AM EST / 2019.12.11 1517 UTC
Wind: from the W (260 degrees) at 12 MPH (10 KT) gusting to 20 MPH (17 KT):0
Visibility: 10 mile(s):0
Sky conditions: mostly cloudy
Temperature: 21.0 F (-6.1 C)
Windchill: 8 F (-13 C):1
Dew Point: 19.9 F (-6.7 C)
Relative Humidity: 95%
Pressure (altimeter): 30.4 in. Hg (1029 hPa)
ob: KBLF 111517Z AUTO 26010G17KT 10SM BKN017 M06/M07 A3040 RMK AO2 T10611067
cycle: 15

Station Type Date Time Source
KBLF TAF 2019/12/11 15:58 UTC NOAA

TAF
AMD KBLF 111456Z 1115/1212 29008G18KT P6SM BKN015
TEMPO 1115/1116 SCT015
FM111600 31010G18KT P6SM SKC
FM120100 VRB03KT P6SM SKC

Example: see airport list